Time;durP1;ratioP1;P1;durP2;ratioP2;P2;SDS_P1;SDS_P2;PMS_P1;PMS_P2;Temp;Humidity;BMP_temperature;BMP_pressure;BME280_temperature;BME280_humidity;BME280_pressure;Samples;Min_cycle;Max_cycle;Signal;HPM_P1;HPM_P2
2022/01/20 00:02:20;;;;;;;42.08;7.03;;;;;;;3.31;100.00;102284.56;4995715;28;20225;-70
2022/01/20 00:05:05;;;;;;;64.18;10.57;;;;;;;3.36;100.00;102292.84;4995349;28;20412;-70
2022/01/20 00:07:43;;;;;;;52.00;7.25;;;;;;;3.26;100.00;102281.69;4994583;28;20046;-68
2022/01/20 00:26:29;;;;;;;43.35;7.57;;;;;;;3.25;100.00;102296.25;4994377;28;20049;-70
2022/01/20 00:28:59;;;;;;;40.95;6.47;;;;;;;3.26;100.00;102309.50;4993041;28;20096;-68
2022/01/20 00:32:09;;;;;;;49.13;8.07;;;;;;;3.22;100.00;102302.06;4991154;28;20424;-69
2022/01/20 00:34:17;;;;;;;40.00;6.90;;;;;;;3.16;100.00;102296.50;4990659;28;20154;-69
2022/01/20 00:39:28;;;;;;;44.28;6.88;;;;;;;3.13;100.00;102309.59;4993908;28;20045;-69
2022/01/20 00:41:55;;;;;;;54.80;7.05;;;;;;;3.22;100.00;102315.56;4992570;28;20041;-68
2022/01/20 00:44:21;;;;;;;53.40;8.93;;;;;;;3.25;100.00;102317.81;4993625;28;20049;-68
2022/01/20 00:46:46;;;;;;;39.15;6.75;;;;;;;3.17;100.00;102310.78;4991768;28;20199;-68
2022/01/20 00:49:13;;;;;;;42.33;7.75;;;;;;;3.29;100.00;102308.25;4992353;28;20041;-68
2022/01/20 00:51:38;;;;;;;43.17;8.10;;;;;;;3.30;100.00;102309.91;4990905;28;20061;-68
2022/01/20 00:54:04;;;;;;;45.67;7.63;;;;;;;3.28;100.00;102307.41;4975898;28;20053;-70
2022/01/20 00:56:30;;;;;;;36.90;5.65;;;;;;;3.30;100.00;102304.50;4991906;28;20164;-68
2022/01/20 00:58:55;;;;;;;37.65;6.03;;;;;;;3.36;100.00;102298.22;4999563;28;20045;-70
2022/01/20 01:01:23;;;;;;;31.77;5.97;;;;;;;3.28;100.00;102298.50;5012909;28;20449;-69
2022/01/20 01:03:49;;;;;;;35.45;6.88;;;;;;;3.18;100.00;102299.81;5011100;28;20041;-68
2022/01/20 01:08:52;;;;;;;42.05;5.60;;;;;;;3.08;100.00;102302.16;5012387;28;20041;-69
2022/01/20 01:11:19;;;;;;;33.10;6.13;;;;;;;3.03;100.00;102299.31;5010273;28;20364;-69
2022/01/20 01:13:45;;;;;;;31.63;5.45;;;;;;;3.04;100.00;102314.41;5010588;28;20049;-69
2022/01/20 01:16:12;;;;;;;46.97;7.32;;;;;;;3.08;100.00;102307.53;5010454;28;20060;-69
2022/01/20 01:23:54;;;;;;;38.47;5.88;;;;;;;3.11;100.00;102312.53;5010619;28;20044;-69
2022/01/20 01:26:22;;;;;;;37.15;5.45;;;;;;;3.11;100.00;102307.13;5012794;28;20056;-68
2022/01/20 01:28:48;;;;;;;32.25;5.53;;;;;;;3.13;100.00;102315.81;5010651;28;20135;-69
2022/01/20 01:33:51;;;;;;;42.28;4.95;;;;;;;3.17;100.00;102317.03;5013514;28;20041;-68
2022/01/20 01:36:20;;;;;;;32.47;4.85;;;;;;;3.21;100.00;102317.41;5011453;28;20042;-68
2022/01/20 01:38:47;;;;;;;28.95;5.22;;;;;;;3.26;100.00;102314.06;5013925;28;20365;-68
2022/01/20 01:41:17;;;;;;;41.85;5.45;;;;;;;3.16;100.00;102309.16;5011745;28;20147;-67
2022/01/20 01:43:47;;;;;;;35.47;5.28;;;;;;;3.05;100.00;102307.97;5011708;28;20151;-68
2022/01/20 01:46:14;;;;;;;34.97;5.72;;;;;;;3.14;100.00;102300.44;5011377;28;20041;-68
2022/01/20 01:48:42;;;;;;;30.90;4.65;;;;;;;3.09;100.00;102306.50;5011725;28;20223;-68
2022/01/20 01:51:09;;;;;;;35.38;6.55;;;;;;;3.13;100.00;102310.41;5011167;28;20037;-68
2022/01/20 01:53:36;;;;;;;36.63;5.70;;;;;;;3.12;100.00;102311.47;5011156;28;20041;-68
2022/01/20 01:56:03;;;;;;;29.70;4.80;;;;;;;3.08;100.00;102321.00;5013139;28;20042;-68
2022/01/20 01:58:29;;;;;;;39.90;5.90;;;;;;;3.16;100.00;102319.94;5008055;28;20101;-68
2022/01/20 02:01:20;;;;;;;24.60;4.55;;;;;;;3.21;100.00;102327.38;4989282;28;20060;-69
2022/01/20 02:03:57;;;;;;;29.38;4.63;;;;;;;3.20;100.00;102336.50;4991585;28;20049;-68
2022/01/20 02:09:43;;;;;;;26.85;4.38;;;;;;;3.43;100.00;102334.03;4991694;28;20137;-68
2022/01/20 02:20:18;;;;;;;22.67;3.80;;;;;;;3.75;100.00;102331.28;4949264;28;20065;-69
2022/01/20 02:22:58;;;;;;;24.20;3.63;;;;;;;3.78;100.00;102344.34;4993889;28;20049;-68
2022/01/20 02:25:31;;;;;;;15.75;3.30;;;;;;;3.77;100.00;102337.31;4994991;28;20048;-68
2022/01/20 02:27:59;;;;;;;28.88;4.07;;;;;;;3.83;100.00;102339.13;4995154;28;20049;-68
2022/01/20 02:30:28;;;;;;;23.92;3.80;;;;;;;3.77;100.00;102326.50;4978448;28;20042;-68
2022/01/20 02:33:00;;;;;;;21.50;3.60;;;;;;;3.78;100.00;102322.75;4994781;28;20184;-69
2022/01/20 02:35:30;;;;;;;31.75;4.07;;;;;;;3.75;100.00;102325.91;4978765;28;20042;-68
2022/01/20 02:38:04;;;;;;;21.77;3.58;;;;;;;3.69;100.00;102308.72;4994929;28;20042;-68
2022/01/20 02:45:52;;;;;;;23.83;4.53;;;;;;;3.67;100.00;102307.31;4995774;28;20038;-68
2022/01/20 02:48:17;;;;;;;38.35;4.90;;;;;;;3.69;100.00;102316.00;4977459;28;20034;-68
2022/01/20 02:50:43;;;;;;;13.13;3.28;;;;;;;3.67;100.00;102315.41;5006704;28;20041;-68
2022/01/20 02:53:08;;;;;;;33.83;5.22;;;;;;;3.69;100.00;102310.59;4993550;28;20525;-68
2022/01/20 02:55:34;;;;;;;20.25;4.25;;;;;;;3.60;100.00;102316.28;4994501;28;20041;-69
2022/01/20 02:57:59;;;;;;;20.15;3.42;;;;;;;3.64;100.00;102311.28;4994057;28;20038;-68
2022/01/20 03:00:25;;;;;;;32.67;4.22;;;;;;;3.63;100.00;102310.44;5012252;28;20557;-68
2022/01/20 03:02:51;;;;;;;21.25;4.10;;;;;;;3.57;100.00;102319.41;5014462;28;20580;-68
2022/01/20 03:05:16;;;;;;;20.35;4.15;;;;;;;3.53;100.00;102315.50;5015358;28;20427;-68
2022/01/20 03:07:46;;;;;;;29.40;5.95;;;;;;;3.60;100.00;102316.28;5013428;28;20156;-68
2022/01/20 03:10:12;;;;;;;22.52;3.83;;;;;;;3.67;100.00;102315.41;5015853;28;20417;-69
2022/01/20 03:12:38;;;;;;;26.52;5.85;;;;;;;3.75;100.00;102310.56;5015151;28;20041;-68
2022/01/20 03:15:04;;;;;;;18.77;4.18;;;;;;;3.84;100.00;102306.53;5013292;28;20399;-68
2022/01/20 03:17:32;;;;;;;21.05;3.83;;;;;;;3.89;100.00;102311.25;5013839;28;20324;-68
2022/01/20 03:19:58;;;;;;;28.70;3.20;;;;;;;4.05;100.00;102313.38;5014128;28;20033;-68
2022/01/20 03:22:23;;;;;;;25.25;3.55;;;;;;;4.07;100.00;102319.38;5013681;28;20052;-69
2022/01/20 03:24:49;;;;;;;18.77;3.45;;;;;;;4.01;100.00;102316.72;5014452;28;20084;-69
2022/01/20 03:27:14;;;;;;;17.20;3.35;;;;;;;3.90;100.00;102321.00;5013753;28;20580;-70
2022/01/20 03:29:39;;;;;;;21.50;4.07;;;;;;;3.96;100.00;102303.91;5013346;28;20341;-71
2022/01/20 03:32:05;;;;;;;21.58;4.10;;;;;;;3.86;100.00;102309.00;5015322;28;20064;-71
2022/01/20 03:34:31;;;;;;;29.08;3.63;;;;;;;3.78;100.00;102306.56;5013636;28;20091;-72
2022/01/20 03:37:03;;;;;;;13.73;2.78;;;;;;;3.73;100.00;102314.53;5013033;28;20041;-71
2022/01/20 03:39:42;;;;;;;23.42;3.65;;;;;;;3.68;100.00;102320.56;5013070;28;20037;-71
2022/01/20 03:42:08;;;;;;;20.50;3.60;;;;;;;3.72;100.00;102321.78;5012589;28;20041;-70
2022/01/20 03:44:34;;;;;;;24.30;3.05;;;;;;;3.75;100.00;102334.00;5013169;28;20413;-72
2022/01/20 03:47:02;;;;;;;15.15;3.03;;;;;;;3.69;100.00;102335.69;5013091;28;20041;-70
2022/01/20 03:49:39;;;;;;;20.98;3.75;;;;;;;3.71;100.00;102338.19;5012175;28;20463;-71
2022/01/20 03:52:06;;;;;;;35.95;3.70;;;;;;;3.62;100.00;102346.56;5012601;28;20137;-71
2022/01/20 03:54:32;;;;;;;20.80;3.28;;;;;;;3.56;100.00;102342.03;5003201;28;20060;-69
2022/01/20 03:57:16;;;;;;;21.55;4.18;;;;;;;3.52;100.00;102346.25;4993950;28;20050;-70
2022/01/20 04:00:05;;;;;;;27.35;4.32;;;;;;;3.47;100.00;102347.94;5013608;28;20141;-69
2022/01/20 04:02:40;;;;;;;20.60;3.22;;;;;;;3.48;100.00;102336.09;5014065;28;20049;-70
2022/01/20 04:05:14;;;;;;;32.13;5.30;;;;;;;3.57;100.00;102343.69;5012455;28;20765;-69
2022/01/20 04:07:48;;;;;;;17.55;3.25;;;;;;;3.55;100.00;102343.09;5013046;28;20041;-69
2022/01/20 04:10:14;;;;;;;33.85;4.13;;;;;;;3.65;100.00;102341.78;5012396;28;20056;-71
2022/01/20 04:12:39;;;;;;;17.35;2.67;;;;;;;3.67;100.00;102337.00;5014400;28;20052;-72
2022/01/20 04:15:08;;;;;;;16.85;2.50;;;;;;;3.72;100.00;102351.44;5012948;28;20045;-71
2022/01/20 04:17:40;;;;;;;27.73;3.03;;;;;;;3.75;100.00;102360.97;5012490;28;20074;-71
2022/01/20 04:20:08;;;;;;;23.52;3.78;;;;;;;3.45;100.00;102372.41;5012321;28;20029;-71
2022/01/20 04:22:33;;;;;;;21.60;2.90;;;;;;;3.50;100.00;102396.88;5012457;28;20072;-71
2022/01/20 04:25:00;;;;;;;17.98;3.75;;;;;;;3.47;100.00;102391.91;5011885;28;20467;-70
2022/01/20 04:27:25;;;;;;;32.05;4.22;;;;;;;3.50;100.00;102391.47;5011364;28;20044;-69
2022/01/20 04:29:51;;;;;;;8.55;2.47;;;;;;;3.41;100.00;102384.69;5011525;28;20465;-69
2022/01/20 04:32:16;;;;;;;16.73;2.63;;;;;;;3.42;100.00;102390.91;5013546;28;20438;-70
2022/01/20 04:34:43;;;;;;;11.60;2.30;;;;;;;3.42;100.00;102386.34;5011002;28;20041;-69
2022/01/20 04:37:09;;;;;;;18.10;2.90;;;;;;;3.35;100.00;102391.78;5010420;28;20482;-69
2022/01/20 04:39:41;;;;;;;18.67;3.83;;;;;;;3.38;100.00;102395.91;5011211;28;20033;-69
2022/01/20 04:42:07;;;;;;;13.43;2.80;;;;;;;3.33;100.00;102395.72;5006695;28;20061;-70
2022/01/20 04:44:46;;;;;;;15.10;2.92;;;;;;;3.35;100.00;102393.66;4975484;28;20058;-69
2022/01/20 04:47:25;;;;;;;20.77;2.70;;;;;;;3.40;100.00;102385.72;5011072;28;20088;-69
2022/01/20 04:58:04;;;;;;;17.25;3.08;;;;;;;3.31;100.00;102397.81;5009670;28;20102;-70
2022/01/20 05:00:30;;;;;;;20.20;4.07;;;;;;;3.30;100.00;102396.16;5011821;28;20049;-70
2022/01/20 05:03:14;;;;;;;16.02;3.08;;;;;;;3.23;100.00;102406.16;5012033;28;20076;-69
2022/01/20 05:05:40;;;;;;;28.08;2.78;;;;;;;3.23;100.00;102409.69;5009723;28;20047;-70
2022/01/20 05:08:17;;;;;;;15.70;2.72;;;;;;;3.36;100.00;102411.47;4994043;28;20042;-70
2022/01/20 05:10:42;;;;;;;27.10;3.22;;;;;;;3.36;100.00;102411.47;5007468;28;20037;-70
2022/01/20 05:13:20;;;;;;;34.42;3.65;;;;;;;3.26;100.00;102424.59;5008164;28;20041;-70
2022/01/20 05:15:46;;;;;;;23.80;3.13;;;;;;;3.31;100.00;102422.09;5008802;28;20522;-69
2022/01/20 05:18:11;;;;;;;29.33;4.28;;;;;;;3.37;100.00;102419.38;5009225;28;20050;-70
2022/01/20 05:20:37;;;;;;;17.60;3.25;;;;;;;3.29;100.00;102416.91;5009500;28;20141;-70
2022/01/20 05:23:02;;;;;;;17.17;2.83;;;;;;;3.38;100.00;102422.88;5007727;28;20030;-70
2022/01/20 05:25:28;;;;;;;28.17;3.60;;;;;;;3.20;100.00;102438.94;4994073;28;20065;-70
2022/01/20 05:27:54;;;;;;;23.70;4.80;;;;;;;3.34;100.00;102429.72;5010133;28;20040;-69
2022/01/20 05:30:20;;;;;;;33.40;3.80;;;;;;;3.29;100.00;102426.88;5007266;28;20647;-70
2022/01/20 05:33:05;;;;;;;24.08;4.82;;;;;;;3.35;100.00;102436.81;4992572;28;20054;-69
2022/01/20 05:35:32;;;;;;;25.60;4.03;;;;;;;3.39;100.00;102448.78;4990864;28;20388;-70
2022/01/20 05:37:58;;;;;;;22.67;3.83;;;;;;;3.24;100.00;102457.16;4990399;28;20458;-71
2022/01/20 05:40:23;;;;;;;23.15;4.15;;;;;;;3.29;100.00;102467.31;4990898;28;20057;-69
2022/01/20 05:42:50;;;;;;;30.05;5.47;;;;;;;3.34;100.00;102467.47;4990792;28;20065;-70
2022/01/20 05:45:16;;;;;;;32.22;4.20;;;;;;;3.36;100.00;102466.22;4990143;28;20149;-69
2022/01/20 05:47:45;;;;;;;29.30;4.25;;;;;;;3.38;100.00;102482.22;4990123;28;20068;-69
2022/01/20 05:50:18;;;;;;;26.77;4.15;;;;;;;3.29;100.00;102475.41;4991993;28;20056;-70
2022/01/20 05:52:46;;;;;;;23.30;3.88;;;;;;;3.29;100.00;102478.09;4990652;28;20052;-70
2022/01/20 05:55:15;;;;;;;27.85;4.00;;;;;;;3.28;100.00;102476.44;4986629;28;20045;-69
2022/01/20 05:57:42;;;;;;;21.85;4.55;;;;;;;3.29;100.00;102480.81;5008667;28;20096;-70
2022/01/20 06:00:12;;;;;;;29.00;4.53;;;;;;;3.35;100.00;102496.13;5024555;28;20165;-69
2022/01/20 06:05:32;;;;;;;22.13;5.20;;;;;;;3.37;100.00;102510.19;5027714;28;20041;-69
2022/01/20 06:07:58;;;;;;;23.58;3.45;;;;;;;3.26;100.00;102518.94;5010265;28;20548;-69
2022/01/20 06:10:23;;;;;;;31.58;5.30;;;;;;;3.21;100.00;102521.47;4994243;28;20021;-69
2022/01/20 06:12:48;;;;;;;19.50;3.85;;;;;;;3.31;100.00;102528.06;4998137;28;20520;-71
2022/01/20 06:15:14;;;;;;;27.17;4.07;;;;;;;3.35;100.00;102515.00;4997341;28;20046;-70
2022/01/20 06:17:41;;;;;;;26.00;5.07;;;;;;;3.33;100.00;102519.78;4995963;28;20173;-70
2022/01/20 06:20:11;;;;;;;27.35;4.47;;;;;;;3.32;100.00;102510.03;4992437;28;20084;-71
2022/01/20 06:22:37;;;;;;;25.10;4.82;;;;;;;3.40;100.00;102509.75;4992995;28;20333;-71
2022/01/20 06:25:04;;;;;;;33.28;4.32;;;;;;;3.34;100.00;102516.03;4993430;28;20057;-70
2022/01/20 06:27:30;;;;;;;28.05;4.65;;;;;;;3.40;100.00;102523.25;5009082;28;20357;-73
2022/01/20 06:29:56;;;;;;;25.08;4.18;;;;;;;3.23;100.00;102514.84;5013731;28;20166;-69
2022/01/20 06:32:21;;;;;;;21.67;4.43;;;;;;;3.15;100.00;102529.38;5012915;28;20048;-70
2022/01/20 06:34:47;;;;;;;17.48;3.70;;;;;;;3.17;100.00;102538.09;5012991;28;20482;-72
2022/01/20 06:37:13;;;;;;;17.00;3.33;;;;;;;3.22;100.00;102544.69;5013090;28;20229;-69
2022/01/20 06:39:38;;;;;;;21.63;4.28;;;;;;;2.97;100.00;102553.47;5015796;28;20045;-69
2022/01/20 06:42:05;;;;;;;29.73;4.28;;;;;;;3.11;100.00;102573.97;5015856;28;20045;-69
2022/01/20 06:44:31;;;;;;;30.95;3.63;;;;;;;2.95;100.00;102567.16;5013790;28;20045;-71
2022/01/20 06:46:56;;;;;;;23.33;3.55;;;;;;;2.92;100.00;102577.53;5013813;28;20063;-70
2022/01/20 06:49:29;;;;;;;18.65;3.38;;;;;;;2.85;100.00;102557.84;5013597;28;20045;-70
2022/01/20 06:51:57;;;;;;;27.95;4.85;;;;;;;2.90;100.00;102577.72;5015344;28;20037;-68
2022/01/20 06:54:23;;;;;;;19.67;3.58;;;;;;;2.81;100.00;102573.59;5013103;28;20053;-70
2022/01/20 06:56:48;;;;;;;29.13;3.25;;;;;;;2.80;100.00;102576.50;5013671;28;20045;-71
2022/01/20 06:59:15;;;;;;;19.80;3.40;;;;;;;2.80;100.00;102590.81;5004248;28;20188;-70
2022/01/20 07:01:42;;;;;;;17.80;3.38;;;;;;;2.74;100.00;102590.81;4993897;28;20041;-72
2022/01/20 07:04:10;;;;;;;19.95;3.42;;;;;;;2.78;100.00;102597.44;4992786;28;20132;-71
2022/01/20 07:06:37;;;;;;;17.50;2.95;;;;;;;2.82;100.00;102601.34;4976573;28;20489;-70
2022/01/20 07:09:21;;;;;;;18.17;3.40;;;;;;;2.83;100.00;102616.50;4992248;28;20056;-69
2022/01/20 07:11:49;;;;;;;10.20;2.97;;;;;;;2.61;100.00;102608.63;4991845;28;20133;-70
2022/01/20 07:14:15;;;;;;;20.38;3.50;;;;;;;2.41;100.00;102618.56;4992556;28;20046;-70
2022/01/20 07:16:41;;;;;;;15.63;3.13;;;;;;;2.40;100.00;102616.91;4993228;28;20487;-70
2022/01/20 07:19:06;;;;;;;13.25;3.00;;;;;;;2.35;100.00;102616.69;4991657;28;20065;-70
2022/01/20 07:21:32;;;;;;;19.67;3.03;;;;;;;2.24;100.00;102615.41;4991182;28;20136;-69
2022/01/20 07:24:00;;;;;;;20.08;2.90;;;;;;;2.23;100.00;102606.50;4990641;28;20542;-69
2022/01/20 07:26:27;;;;;;;13.20;3.25;;;;;;;2.22;100.00;102607.56;4992882;28;20053;-70
2022/01/20 07:29:03;;;;;;;17.00;2.58;;;;;;;2.13;100.00;102611.47;4990639;28;20038;-70
2022/01/20 07:31:29;;;;;;;17.48;2.85;;;;;;;2.13;100.00;102616.03;4991269;28;20756;-69
2022/01/20 07:33:54;;;;;;;16.25;3.17;;;;;;;2.06;100.00;102624.06;4991683;28;20042;-70
2022/01/20 07:36:20;;;;;;;19.95;3.40;;;;;;;1.94;100.00;102621.13;4991614;28;20803;-69
2022/01/20 07:38:45;;;;;;;15.57;3.83;;;;;;;1.90;100.00;102624.44;4991464;28;20045;-69
2022/01/20 07:41:11;;;;;;;13.65;2.58;;;;;;;1.87;100.00;102620.31;4991515;28;20580;-70
2022/01/20 07:43:38;;;;;;;13.65;2.85;;;;;;;1.83;100.00;102627.09;4991458;28;20582;-71
2022/01/20 07:46:22;;;;;;;16.50;3.22;;;;;;;1.87;100.00;102624.84;4993981;28;20415;-71
2022/01/20 07:48:55;;;;;;;;;;;;;;;1.88;100.00;102637.28;4993658;28;20041;-70
2022/01/20 07:51:20;;;;;;;22.48;2.80;;;;;;;1.90;100.00;102635.22;4993285;28;19921;-70
2022/01/20 07:53:46;;;;;;;14.95;2.90;;;;;;;1.95;100.00;102640.78;4998354;28;20489;-71
2022/01/20 07:56:13;;;;;;;13.73;2.78;;;;;;;2.09;100.00;102653.25;5011985;28;20036;-71
2022/01/20 07:58:40;;;;;;;19.77;3.25;;;;;;;2.17;100.00;102655.78;5012340;28;20336;-69
2022/01/20 08:01:06;;;;;;;24.35;3.50;;;;;;;2.21;100.00;102662.44;5011317;28;20168;-70
2022/01/20 08:03:36;;;;;;;14.95;3.10;;;;;;;2.32;100.00;102668.25;5011306;28;20425;-70
2022/01/20 08:06:05;;;;;;;17.80;3.65;;;;;;;2.33;100.00;102669.88;4991549;28;20042;-70
2022/01/20 08:08:34;;;;;;;12.65;2.17;;;;;;;2.34;100.00;102668.88;5006227;28;20135;-71
2022/01/20 08:11:20;;;;;;;15.40;2.53;;;;;;;2.42;100.00;102674.06;5012896;28;20110;-71
2022/01/20 08:13:46;;;;;;;23.48;3.17;;;;;;;2.49;100.00;102674.91;5009748;28;20037;-70
2022/01/20 08:16:11;;;;;;;17.23;2.65;;;;;;;2.57;100.00;102676.59;4994219;28;20038;-70
2022/01/20 08:18:37;;;;;;;16.05;2.75;;;;;;;2.55;100.00;102679.47;5010559;28;20048;-71
2022/01/20 08:21:02;;;;;;;16.45;2.47;;;;;;;2.48;100.00;102679.47;5011035;28;20043;-71
2022/01/20 08:23:28;;;;;;;13.60;3.58;;;;;;;2.62;100.00;102674.94;4995206;28;20394;-70
2022/01/20 08:25:53;;;;;;;20.45;2.28;;;;;;;2.58;100.00;102678.22;5009804;28;20060;-70
2022/01/20 08:28:21;;;;;;;18.30;3.15;;;;;;;2.66;100.00;102686.94;4991408;28;20064;-71
2022/01/20 08:30:48;;;;;;;13.63;2.22;;;;;;;2.62;100.00;102696.50;4991518;28;20046;-70
2022/01/20 08:33:14;;;;;;;19.65;3.00;;;;;;;2.75;100.00;102687.59;4975958;28;20088;-70
2022/01/20 08:35:51;;;;;;;21.23;2.60;;;;;;;2.68;100.00;102684.88;4993068;28;20053;-71
2022/01/20 08:38:35;;;;;;;17.58;3.45;;;;;;;2.66;100.00;102688.81;4993241;28;20384;-69
2022/01/20 08:41:00;;;;;;;19.15;2.55;;;;;;;2.67;100.00;102683.22;4992691;28;20042;-71
2022/01/20 08:43:26;;;;;;;15.75;2.50;;;;;;;2.58;100.00;102689.00;4990277;28;20061;-69
2022/01/20 08:45:54;;;;;;;23.55;3.97;;;;;;;2.63;100.00;102700.00;4990923;28;20736;-70
2022/01/20 08:48:21;;;;;;;23.83;2.80;;;;;;;2.68;100.00;102706.44;4991034;28;20037;-70
2022/01/20 08:51:13;;;;;;;18.50;3.45;;;;;;;2.69;100.00;102708.09;5000118;28;20364;-70
2022/01/20 08:54:02;;;;;;;17.55;3.13;;;;;;;2.74;100.00;102707.47;5003389;28;20072;-70
2022/01/20 08:56:34;;;;;;;12.52;3.17;;;;;;;2.80;100.00;102716.63;5009834;28;20080;-70
2022/01/20 08:59:01;;;;;;;21.90;3.15;;;;;;;2.81;100.00;102715.56;5009959;28;20055;-70
2022/01/20 09:01:28;;;;;;;19.85;3.40;;;;;;;2.87;100.00;102709.34;4994916;28;20553;-71
2022/01/20 09:03:54;;;;;;;21.70;3.08;;;;;;;2.76;100.00;102718.03;5011637;28;20110;-71
2022/01/20 09:06:21;;;;;;;19.15;3.30;;;;;;;2.80;100.00;102719.31;5011716;28;20594;-70
2022/01/20 09:08:51;;;;;;;20.13;3.28;;;;;;;3.03;100.00;102730.50;5011037;28;20414;-70
2022/01/20 09:11:22;;;;;;;11.18;2.35;;;;;;;3.12;100.00;102734.66;5010593;28;20056;-71
2022/01/20 09:16:41;;;;;;;18.93;3.07;;;;;;;2.96;100.00;102743.13;5010392;28;20037;-71
2022/01/20 09:19:15;;;;;;;11.27;2.40;;;;;;;3.14;100.00;102729.03;5010151;28;20460;-67
2022/01/20 09:21:52;;;;;;;18.92;3.50;;;;;;;3.28;100.00;102735.28;5010238;28;20029;-70
2022/01/20 09:24:18;;;;;;;15.18;2.63;;;;;;;3.20;100.00;102730.94;5010392;28;20048;-69
2022/01/20 09:26:43;;;;;;;25.63;3.05;;;;;;;3.28;100.00;102729.88;5007229;28;20040;-69
2022/01/20 09:29:09;;;;;;;21.67;3.58;;;;;;;3.21;100.00;102737.97;5008044;28;20038;-69
2022/01/20 09:31:38;;;;;;;20.52;2.92;;;;;;;3.12;100.00;102740.06;4992801;28;20505;-69
2022/01/20 09:34:05;;;;;;;13.40;2.88;;;;;;;3.14;100.00;102743.38;5009078;28;20069;-69
2022/01/20 09:36:33;;;;;;;18.20;3.13;;;;;;;3.25;100.00;102733.00;5009432;28;20529;-70
2022/01/20 09:38:59;;;;;;;15.05;2.85;;;;;;;3.29;100.00;102736.94;5009646;28;20041;-70
2022/01/20 09:41:44;;;;;;;21.13;3.97;;;;;;;3.37;100.00;102736.72;4997707;28;20057;-70
2022/01/20 09:44:11;;;;;;;17.08;3.22;;;;;;;3.28;100.00;102738.78;5006136;28;20069;-69
2022/01/20 09:46:38;;;;;;;15.15;2.42;;;;;;;3.41;100.00;102737.97;4990350;28;20635;-70
2022/01/20 09:49:22;;;;;;;14.85;3.80;;;;;;;3.55;100.00;102744.16;4997429;28;20123;-69
2022/01/20 09:51:48;;;;;;;21.63;3.08;;;;;;;3.40;100.00;102747.06;5009699;28;20325;-69
2022/01/20 09:54:19;;;;;;;16.98;3.22;;;;;;;3.33;100.00;102757.06;5009413;28;20041;-68
2022/01/20 09:56:45;;;;;;;16.38;2.92;;;;;;;3.32;100.00;102760.81;5010034;28;20548;-69
2022/01/20 09:59:13;;;;;;;12.95;3.22;;;;;;;3.42;100.00;102771.16;5001651;28;20670;-70
2022/01/20 10:01:42;;;;;;;13.25;2.63;;;;;;;3.69;100.00;102778.16;4995005;28;20193;-68
2022/01/20 10:04:38;;;;;;;22.05;4.03;;;;;;;3.68;100.00;102778.41;4993015;28;20461;-69
2022/01/20 10:07:13;;;;;;;15.15;3.58;;;;;;;3.63;100.00;102779.84;4989408;28;20037;-69
2022/01/20 10:09:42;;;;;;;;;;;;;;;3.62;100.00;102780.06;5006794;28;20073;-69
2022/01/20 10:12:42;;;;;;;17.80;3.25;;;;;;;3.62;100.00;102783.59;4967870;28;20394;-68
2022/01/20 10:15:17;;;;;;;29.33;3.55;;;;;;;3.57;100.00;102786.06;4998639;28;20071;-68
2022/01/20 10:18:14;;;;;;;20.85;2.97;;;;;;;3.82;100.00;102788.13;4995459;28;20046;-69
2022/01/20 10:21:01;;;;;;;15.43;2.92;;;;;;;3.85;100.00;102798.50;4991305;28;20792;-68
2022/01/20 10:23:43;;;;;;;20.50;3.80;;;;;;;3.79;100.00;102793.94;5007955;28;20085;-69
2022/01/20 10:26:23;;;;;;;18.02;3.50;;;;;;;3.54;100.00;102791.88;5009197;28;20121;-69
2022/01/20 10:29:00;;;;;;;18.70;2.65;;;;;;;3.79;100.00;102793.94;5009002;28;20064;-69
2022/01/20 10:31:34;;;;;;;16.38;2.72;;;;;;;3.65;100.00;102793.13;5009800;28;20037;-69
2022/01/20 10:34:00;;;;;;;15.38;3.70;;;;;;;3.66;100.00;102793.97;5009318;28;20464;-69
2022/01/20 10:36:25;;;;;;;27.08;4.65;;;;;;;3.63;100.00;102801.41;5009981;28;20073;-69
2022/01/20 10:39:11;;;;;;;15.38;3.00;;;;;;;3.67;100.00;102811.81;5010813;28;20594;-69
2022/01/20 10:41:38;;;;;;;17.02;2.67;;;;;;;3.82;100.00;102807.84;4992134;28;20045;-69
2022/01/20 10:44:14;;;;;;;23.30;4.43;;;;;;;4.20;100.00;102814.41;5011340;28;20050;-69
2022/01/20 10:46:53;;;;;;;13.93;3.05;;;;;;;4.27;100.00;102804.41;5012949;28;20041;-70
2022/01/20 10:49:30;;;;;;;15.25;3.33;;;;;;;4.48;100.00;102804.13;5013286;28;20389;-70
2022/01/20 10:52:04;;;;;;;17.48;3.38;;;;;;;4.63;100.00;102806.56;5012601;28;20041;-69
2022/01/20 10:54:38;;;;;;;20.55;3.92;;;;;;;4.64;100.00;102810.06;5012768;28;20426;-70
2022/01/20 10:57:05;;;;;;;19.35;3.25;;;;;;;4.79;100.00;102813.31;5013228;28;20593;-70
2022/01/20 10:59:32;;;;;;;19.70;4.47;;;;;;;4.68;100.00;102814.84;5001416;28;20269;-69
2022/01/20 11:02:06;;;;;;;17.13;3.22;;;;;;;4.57;100.00;102807.41;4992445;28;20044;-71
2022/01/20 11:04:33;;;;;;;15.45;3.25;;;;;;;4.44;100.00;102812.88;4992415;28;20145;-67
2022/01/20 11:07:04;;;;;;;30.60;5.13;;;;;;;4.08;100.00;102804.25;4992679;28;20070;-68
2022/01/20 11:09:34;;;;;;;27.05;3.75;;;;;;;4.19;100.00;102801.94;5011316;28;20048;-68
2022/01/20 11:12:28;;;;;;;20.90;4.00;;;;;;;4.25;100.00;102788.44;5009582;28;20273;-68
2022/01/20 11:15:07;;;;;;;23.10;3.28;;;;;;;4.24;100.00;102778.66;4995726;28;20048;-68
2022/01/20 11:17:35;;;;;;;18.88;3.78;;;;;;;4.61;100.00;102780.78;5007391;28;20294;-67
2022/01/20 11:20:06;;;;;;;20.58;4.55;;;;;;;4.81;100.00;102783.38;5007805;28;20553;-67
2022/01/20 11:22:33;;;;;;;23.02;3.45;;;;;;;4.74;100.00;102780.69;5010790;28;20033;-69
2022/01/20 11:25:19;;;;;;;20.80;3.88;;;;;;;4.47;100.00;102782.72;5008791;28;20033;-70
2022/01/20 11:28:10;;;;;;;19.20;3.67;;;;;;;4.33;100.00;102792.75;5001438;28;20528;-67
2022/01/20 11:31:05;;;;;;;22.13;3.17;;;;;;;4.17;100.00;102787.84;5010850;28;20444;-69
2022/01/20 11:33:41;;;;;;;20.85;3.40;;;;;;;3.62;100.00;102799.78;5010877;28;20088;-69
2022/01/20 11:36:29;;;;;;;22.67;2.80;;;;;;;3.66;100.00;102800.19;5011346;28;20076;-71
2022/01/20 11:39:04;;;;;;;22.25;3.40;;;;;;;3.72;100.00;102788.53;5013484;28;20703;-69
2022/01/20 11:41:35;;;;;;;16.20;3.35;;;;;;;4.17;100.00;102793.25;5013996;28;20045;-69
2022/01/20 11:44:10;;;;;;;18.63;3.88;;;;;;;4.58;100.00;102798.25;5011539;28;20333;-69
2022/01/20 11:46:38;;;;;;;19.15;2.80;;;;;;;4.64;100.00;102797.38;5012031;28;20398;-68
2022/01/20 11:49:10;;;;;;;19.00;3.20;;;;;;;4.74;100.00;102807.72;5009437;28;20044;-68
2022/01/20 11:51:58;;;;;;;20.27;2.92;;;;;;;4.41;100.00;102802.50;5012495;28;20049;-67
2022/01/20 11:54:23;;;;;;;23.60;3.30;;;;;;;4.53;100.00;102806.16;5009112;28;20053;-70
2022/01/20 11:56:49;;;;;;;16.00;2.97;;;;;;;4.22;100.00;102804.22;5010804;28;20041;-68
2022/01/20 11:59:16;;;;;;;19.15;2.95;;;;;;;4.10;100.00;102809.44;5011122;28;20080;-70
2022/01/20 12:01:48;;;;;;;11.02;2.10;;;;;;;3.74;100.00;102812.63;5013190;28;20387;-69
2022/01/20 12:04:18;;;;;;;10.20;2.45;;;;;;;3.83;100.00;102814.06;5012643;28;20041;-71
2022/01/20 12:06:51;;;;;;;18.23;2.83;;;;;;;3.81;100.00;102808.03;5010499;28;20045;-71
2022/01/20 12:09:29;;;;;;;12.68;2.75;;;;;;;3.69;100.00;102801.63;5012461;28;20071;-70
2022/01/20 12:11:54;;;;;;;13.60;2.65;;;;;;;3.74;100.00;102797.25;5011060;28;20223;-70
2022/01/20 12:14:38;;;;;;;13.65;2.17;;;;;;;3.63;100.00;102790.63;5012588;28;20293;-69
2022/01/20 12:17:08;;;;;;;14.30;2.40;;;;;;;3.46;100.00;102789.44;5012642;28;20045;-69
2022/01/20 12:19:34;;;;;;;11.35;2.22;;;;;;;3.54;100.00;102781.09;5013170;28;20041;-68
2022/01/20 12:22:02;;;;;;;16.02;2.33;;;;;;;3.49;100.00;102783.63;5013264;28;20092;-69
2022/01/20 12:24:27;;;;;;;10.95;2.10;;;;;;;3.45;100.00;102787.75;5012641;28;20037;-70
2022/01/20 12:26:53;;;;;;;7.88;2.17;;;;;;;3.44;100.00;102783.41;5012324;28;20083;-69
2022/01/20 12:29:19;;;;;;;11.15;2.05;;;;;;;3.65;100.00;102779.63;5012763;28;20432;-68
2022/01/20 12:31:53;;;;;;;30.60;3.33;;;;;;;3.67;100.00;102779.44;5013334;28;20136;-69